createdAt,value
2019-01-23T00:02:00.504Z,61.63
2019-01-23T00:07:10.464Z,66.87
2019-01-23T00:12:16.112Z,45.83
2019-01-23T00:17:21.754Z,63.63
2019-01-23T00:22:27.368Z,54.40
2019-01-23T00:27:33.029Z,47.27
2019-01-23T00:32:40.500Z,43.63
2019-01-23T00:37:46.538Z,68.53
2019-01-23T00:42:52.157Z,61.10
2019-01-23T00:47:57.781Z,60.93
2019-01-23T00:53:03.490Z,60.87
2019-01-23T00:58:09.125Z,47.93
2019-01-23T01:03:14.791Z,43.80
2019-01-23T01:08:20.417Z,53.40
2019-01-23T01:13:26.045Z,42.50
2019-01-23T01:18:33.024Z,49.13
2019-01-23T01:23:38.609Z,54.43
2019-01-23T01:28:44.292Z,50.10
2019-01-23T01:33:49.907Z,43.67
2019-01-23T01:38:55.677Z,43.13
2019-01-23T01:44:01.566Z,43.33
2019-01-23T01:49:10.138Z,41.33
2019-01-23T01:54:15.802Z,54.90
2019-01-23T01:59:23.025Z,50.00
2019-01-23T02:04:28.599Z,47.70
2019-01-23T02:09:35.522Z,41.77
2019-01-23T02:14:41.372Z,46.90
2019-01-23T02:19:47.066Z,57.00
2019-01-23T02:24:52.704Z,56.37
2019-01-23T02:29:58.371Z,48.03
2019-01-23T02:35:04.569Z,64.50
2019-01-23T02:40:13.910Z,43.47
2019-01-23T02:45:23.052Z,50.87
2019-01-23T02:50:28.684Z,55.47
2019-01-23T02:55:34.556Z,47.57
2019-01-23T03:00:40.201Z,44.27
2019-01-23T03:05:45.875Z,54.60
2019-01-23T03:10:51.479Z,45.17
2019-01-23T03:15:57.191Z,49.40
2019-01-23T03:21:03.007Z,58.23
2019-01-23T03:26:10.185Z,49.60
2019-01-23T03:31:15.990Z,40.40
2019-01-23T03:36:21.712Z,62.87
2019-01-23T03:41:27.331Z,57.63
2019-01-23T03:46:32.932Z,43.17
2019-01-23T03:51:38.546Z,61.80
2019-01-23T03:56:44.966Z,59.33
2019-01-23T04:01:50.600Z,66.17
2019-01-23T04:06:56.282Z,54.70
2019-01-23T04:12:01.946Z,64.97
2019-01-23T04:17:08.039Z,60.43
2019-01-23T04:22:13.761Z,64.40
2019-01-23T04:27:19.479Z,68.00
2019-01-23T04:32:25.087Z,80.03
2019-01-23T04:37:30.993Z,70.23
2019-01-23T04:42:36.647Z,75.57
2019-01-23T04:47:42.252Z,77.63
2019-01-23T04:53:21.958Z,83.50
2019-01-23T04:58:29.131Z,84.27
2019-01-23T05:03:37.952Z,67.40
2019-01-23T05:08:46.329Z,68.97
2019-01-23T05:13:51.972Z,54.67
2019-01-23T05:18:57.584Z,53.60
2019-01-23T05:24:03.649Z,61.57
2019-01-23T05:29:09.693Z,43.70
2019-01-23T05:34:15.670Z,44.80
2019-01-23T05:39:21.307Z,56.93
2019-01-23T05:44:26.957Z,53.53
2019-01-23T05:49:32.594Z,45.27
2019-01-23T05:54:38.670Z,70.60
2019-01-23T05:59:44.828Z,55.40
2019-01-23T06:04:51.971Z,68.60
2019-01-23T06:10:04.579Z,60.97
2019-01-23T06:15:11.744Z,66.07
2019-01-23T06:20:23.378Z,74.67
2019-01-23T06:25:29.077Z,79.60
2019-01-23T06:30:36.486Z,76.80
2019-01-23T06:35:42.975Z,68.70
2019-01-23T06:40:51.678Z,71.70
2019-01-23T06:46:00.469Z,68.10
2019-01-23T06:51:08.475Z,65.20
2019-01-23T06:56:18.123Z,63.33
2019-01-23T07:01:24.735Z,69.27
2019-01-23T07:06:30.399Z,59.17
2019-01-23T07:11:36.010Z,61.13
2019-01-23T07:16:41.616Z,82.03
2019-01-23T07:21:47.285Z,62.37
2019-01-23T07:26:53.011Z,55.23
2019-01-23T07:31:58.593Z,57.80
2019-01-23T07:37:05.763Z,62.00
2019-01-23T07:42:11.722Z,77.13
2019-01-23T07:47:17.310Z,68.37
2019-01-23T07:52:22.937Z,72.97
2019-01-23T07:57:28.542Z,65.47
2019-01-23T08:02:34.376Z,73.30
2019-01-23T08:07:41.461Z,55.03
2019-01-23T08:12:47.432Z,57.30
2019-01-23T08:17:53.073Z,60.63
2019-01-23T08:22:58.880Z,57.03
2019-01-23T08:28:05.810Z,70.10
2019-01-23T08:33:11.439Z,60.03
2019-01-23T08:38:17.139Z,51.53
2019-01-23T08:43:22.797Z,55.00
2019-01-23T08:48:28.458Z,61.10
2019-01-23T08:53:34.054Z,50.93
2019-01-23T08:58:39.738Z,59.40
2019-01-23T09:03:45.335Z,42.67
2019-01-23T09:08:51.378Z,54.53
2019-01-23T09:13:56.965Z,43.37
2019-01-23T09:19:02.673Z,47.87
2019-01-23T09:24:08.288Z,46.63
2019-01-23T09:29:14.350Z,45.43
2019-01-23T09:34:49.350Z,45.27
2019-01-23T09:40:34.313Z,36.70
2019-01-23T09:45:58.356Z,36.57
2019-01-23T09:51:46.628Z,37.93
2019-01-23T09:56:52.266Z,38.97
2019-01-23T10:01:57.872Z,37.70
2019-01-23T10:07:03.499Z,43.00
2019-01-23T10:12:09.148Z,47.43
2019-01-23T10:17:14.778Z,48.07
2019-01-23T10:22:20.387Z,52.67
2019-01-23T10:27:26.311Z,47.23
2019-01-23T10:32:35.153Z,44.37
2019-01-23T10:37:40.965Z,45.33
2019-01-23T10:42:46.837Z,41.00
2019-01-23T10:47:56.184Z,36.20
2019-01-23T10:53:01.068Z,42.57
2019-01-23T10:58:06.884Z,47.53
2019-01-23T11:03:12.503Z,33.07
2019-01-23T11:08:18.210Z,36.53
2019-01-23T11:13:23.799Z,36.60
2019-01-23T11:18:30.360Z,35.43
2019-01-23T11:23:35.963Z,40.00
2019-01-23T11:28:41.569Z,36.23
2019-01-23T11:33:47.178Z,46.97
2019-01-23T11:38:52.821Z,44.83
2019-01-23T11:43:58.875Z,44.67
2019-01-23T11:49:04.645Z,48.13
2019-01-23T11:54:10.277Z,39.63
2019-01-23T11:59:15.900Z,42.80
2019-01-23T12:04:22.194Z,37.70
2019-01-23T12:09:27.772Z,38.53
2019-01-23T12:14:33.387Z,33.60
2019-01-23T12:19:39.008Z,33.87
2019-01-23T12:24:44.674Z,35.63
2019-01-23T12:29:50.797Z,41.97
2019-01-23T12:34:56.821Z,44.03
2019-01-23T12:40:02.440Z,41.80
2019-01-23T12:45:13.785Z,45.63
2019-01-23T12:50:22.517Z,42.37
2019-01-23T12:55:32.370Z,39.83
2019-01-23T13:00:38.477Z,42.73
2019-01-23T13:05:44.115Z,42.13
2019-01-23T13:10:50.892Z,47.50
2019-01-23T13:15:56.492Z,51.80
2019-01-23T13:21:02.109Z,44.67
2019-01-23T13:26:09.136Z,48.73
2019-01-23T13:31:14.736Z,43.57
2019-01-23T13:36:20.507Z,51.57
2019-01-23T13:41:26.109Z,36.47
2019-01-23T13:46:32.217Z,38.17
2019-01-23T13:51:37.797Z,28.93
2019-01-23T13:56:43.408Z,24.30
2019-01-23T14:01:48.967Z,84.50
2019-01-23T14:06:54.568Z,90.43
2019-01-23T14:12:00.586Z,108.93
2019-01-23T14:17:06.472Z,115.13
2019-01-23T14:22:12.630Z,116.70
2019-01-23T18:39:44.644Z,87.07
2019-01-23T18:45:21.678Z,91.37
2019-01-23T18:51:26.709Z,100.63
2019-01-23T18:56:34.231Z,95.70
2019-01-23T19:01:45.974Z,91.87
2019-01-23T19:06:51.937Z,84.73
2019-01-23T19:12:00.144Z,85.90
2019-01-23T19:17:08.603Z,77.47
2019-01-23T19:22:14.916Z,89.13
2019-01-23T19:27:21.569Z,75.03
2019-01-23T19:32:27.554Z,75.00
2019-01-23T19:37:34.935Z,76.10
2019-01-23T19:42:44.148Z,88.67
2019-01-23T19:47:55.002Z,73.03
2019-01-23T19:53:02.133Z,71.93
2019-01-23T19:58:12.023Z,86.93
2019-01-23T20:03:20.545Z,80.50
2019-01-23T20:08:26.556Z,81.57
2019-01-23T20:13:32.916Z,95.37
2019-01-23T20:18:51.098Z,93.70
2019-01-23T20:24:00.546Z,88.40
2019-01-23T20:29:08.864Z,91.13
2019-01-23T20:34:29.191Z,105.70
2019-01-23T20:39:36.216Z,86.07
2019-01-23T20:44:43.964Z,100.07
2019-01-23T20:49:50.475Z,114.57
2019-01-23T20:54:58.832Z,99.33
2019-01-23T21:00:05.735Z,102.57
2019-01-23T21:05:14.109Z,87.10
2019-01-23T21:10:20.802Z,87.50
2019-01-23T21:15:28.990Z,95.63
2019-01-23T21:20:41.629Z,84.83
2019-01-23T21:25:50.014Z,77.50
2019-01-23T21:30:56.224Z,86.80
2019-01-23T21:36:03.446Z,100.03
2019-01-23T21:41:11.082Z,105.93
2019-01-23T21:46:17.282Z,100.37
2019-01-23T21:51:23.056Z,101.13
2019-01-23T21:56:28.684Z,111.70
2019-01-23T22:01:34.687Z,110.63
2019-01-23T22:06:41.321Z,96.77
2019-01-23T22:11:47.229Z,96.93
2019-01-23T22:16:55.192Z,83.57
2019-01-23T22:22:03.268Z,69.73
2019-01-23T22:27:09.304Z,83.93
2019-01-23T22:32:14.935Z,93.17
2019-01-23T22:37:28.668Z,77.97
2019-01-23T22:42:35.812Z,91.83
2019-01-23T22:47:41.431Z,103.77
2019-01-23T22:52:48.504Z,90.53
2019-01-23T22:57:55.700Z,98.97
2019-01-23T23:03:04.026Z,89.07
2019-01-23T23:08:11.718Z,89.33
2019-01-23T23:13:22.335Z,110.37
2019-01-23T23:18:28.346Z,84.30
2019-01-23T23:23:35.399Z,109.60
2019-01-23T23:28:40.897Z,108.40
2019-01-23T23:33:46.462Z,99.83
2019-01-23T23:38:52.233Z,89.97
2019-01-23T23:43:58.136Z,114.33
2019-01-23T23:55:00.884Z,120.30
